Pagrindinis puslapis
METAR-TAF:

METAR-TAF

Oro uostai :

Fasa, Iranas

platuma: 28-58N, ilguma: 053-41E, Aukštis: 1383 m

Dabartinis oras

Ataskaita buvo paskelbta 21 minutes, ne 14:00 UTC
Vėjas 27 kt iš Šiaurės Vakarų
Temperatūra 20°C
Drėgmė 46%
Slėgis 1016 hPa
Matomumas: 6000 m
Su prošvaistėmis ne aukštis 3000 ft, Liūtiniai kamuoliniai debesys.
Išsisklaidę debesys ne aukštis 3500 ft
perkūnija, (silpnas)

METAR: OISF 201400Z 31027KT 6000 -TS BKN030CB SCT035 20/08 Q1015 A2999 RETS

Laikas: 18:51 (14:21 UTC)


TAF: trūkstamas

Orai ataskaitas ir orų prognozės (METAR, TAF).

turimą stotys yra geltonos ir raudonos taškus žemėlapyje.

Perkelti pele per norėdami pamatyti stoties vardą.

Tada spustelėkite, norėdami matyti oro stebėjimo ir prognozės.

Norėdami pakeisti žemėlapį: spustelėkite ant žalios mygtukų su juodo kryžiaus žemyn,; žalią mygtuką su brūkšneliu, jei norite nutolinti; arba žalių rodyklių gretimoms žemėlapius.


METAR-TAF: